Time;durP1;ratioP1;P1;durP2;ratioP2;P2;SDS_P1;SDS_P2;PMS_P1;PMS_P2;Temp;Humidity;BMP_temperature;BMP_pressure;BME280_temperature;BME280_humidity;BME280_pressure;Samples;Min_cycle;Max_cycle;Signal;HPM_P1;HPM_P2
2022/07/03 00:04:23;;;;;;;11.68;5.47;;;;;;;;;;10132724;28;20412;-66
2022/07/03 00:09:17;;;;;;;11.07;5.60;;;;;;;;;;10130406;28;20055;-63
2022/07/03 00:14:11;;;;;;;9.35;4.60;;;;;;;;;;10129456;28;20048;-61
2022/07/03 00:19:06;;;;;;;10.52;4.95;;;;;;;;;;10130743;28;20048;-62
2022/07/03 00:24:08;;;;;;;6.13;5.03;;;;;;;;;;10133264;28;20559;-66
2022/07/03 00:29:03;;;;;;;10.52;5.05;;;;;;;;;;10115464;28;20086;-64
2022/07/03 00:34:02;;;;;;;7.47;5.95;;;;;;;;;;10131729;28;20143;-65
2022/07/03 00:38:56;;;;;;;9.43;4.55;;;;;;;;;;10137413;28;20045;-64
2022/07/03 00:43:51;;;;;;;11.07;5.90;;;;;;;;;;10141924;28;20106;-65
2022/07/03 00:48:46;;;;;;;8.50;5.53;;;;;;;;;;10138835;28;20529;-65
2022/07/03 00:53:41;;;;;;;10.85;5.15;;;;;;;;;;10136983;28;20057;-64
2022/07/03 00:58:36;;;;;;;11.10;4.60;;;;;;;;;;10119519;28;20061;-64
2022/07/03 01:03:33;;;;;;;13.57;6.15;;;;;;;;;;10138020;28;20111;-63
2022/07/03 01:08:50;;;;;;;8.50;6.00;;;;;;;;;;10138627;28;20053;-63
2022/07/03 01:13:53;;;;;;;11.10;4.90;;;;;;;;;;10138966;28;20503;-65
2022/07/03 01:19:10;;;;;;;10.32;4.68;;;;;;;;;;10126211;28;20057;-65
2022/07/03 01:24:29;;;;;;;6.60;5.45;;;;;;;;;;10107037;28;20495;-65
2022/07/03 01:29:26;;;;;;;7.72;4.90;;;;;;;;;;10134671;28;20063;-65
2022/07/03 01:34:22;;;;;;;6.75;4.50;;;;;;;;;;10129589;28;20438;-65
2022/07/03 01:39:21;;;;;;;10.27;5.07;;;;;;;;;;10117028;28;20467;-65
2022/07/03 01:44:35;;;;;;;8.07;5.45;;;;;;;;;;10125231;28;20119;-65
2022/07/03 01:49:31;;;;;;;7.57;4.40;;;;;;;;;;10128403;28;20044;-65
2022/07/03 01:54:26;;;;;;;6.05;4.88;;;;;;;;;;10129640;28;20063;-66
2022/07/03 01:59:20;;;;;;;6.80;5.03;;;;;;;;;;10135002;28;20060;-65
2022/07/03 02:04:24;;;;;;;8.80;4.55;;;;;;;;;;10130376;28;20044;-65
2022/07/03 02:09:18;;;;;;;9.10;4.93;;;;;;;;;;10112922;28;20483;-66
2022/07/03 02:14:32;;;;;;;6.30;4.45;;;;;;;;;;10118687;28;20503;-66
2022/07/03 02:19:54;;;;;;;11.02;4.20;;;;;;;;;;10136224;28;20044;-66
2022/07/03 02:24:48;;;;;;;4.97;4.50;;;;;;;;;;10138120;28;20079;-66
2022/07/03 02:30:03;;;;;;;9.90;4.90;;;;;;;;;;10141139;28;20114;-66
2022/07/03 02:35:03;;;;;;;6.50;5.20;;;;;;;;;;10122564;28;20060;-66
2022/07/03 02:40:15;;;;;;;6.65;5.50;;;;;;;;;;10142603;28;20091;-65
2022/07/03 02:45:11;;;;;;;11.50;4.50;;;;;;;;;;10113284;28;20074;-66
2022/07/03 02:50:11;;;;;;;9.05;4.93;;;;;;;;;;10139025;28;20048;-65
2022/07/03 02:55:45;;;;;;;10.30;5.15;;;;;;;;;;10145171;28;20449;-65
2022/07/03 03:00:39;;;;;;;9.85;5.03;;;;;;;;;;10136513;28;20199;-65
2022/07/03 03:05:48;;;;;;;7.35;4.22;;;;;;;;;;10120201;28;20083;-65
2022/07/03 03:10:44;;;;;;;8.30;5.45;;;;;;;;;;10133583;28;20058;-65
2022/07/03 03:15:38;;;;;;;7.07;5.10;;;;;;;;;;10123958;28;20072;-66
2022/07/03 03:20:54;;;;;;;5.68;4.57;;;;;;;;;;10130543;28;20052;-65
2022/07/03 03:25:52;;;;;;;9.15;5.10;;;;;;;;;;10128457;28;20057;-65
2022/07/03 03:30:46;;;;;;;6.38;5.70;;;;;;;;;;10140240;28;20078;-65
2022/07/03 03:35:41;;;;;;;7.75;5.07;;;;;;;;;;10138172;28;20123;-65
2022/07/03 03:40:36;;;;;;;7.57;5.40;;;;;;;;;;10143658;28;20508;-65
2022/07/03 03:45:30;;;;;;;10.18;5.28;;;;;;;;;;10136147;28;20419;-66
2022/07/03 03:50:23;;;;;;;9.00;5.13;;;;;;;;;;10132723;28;20044;-65
2022/07/03 03:55:17;;;;;;;8.48;5.07;;;;;;;;;;10126298;28;20056;-66
2022/07/03 04:00:14;;;;;;;15.88;4.97;;;;;;;;;;10124514;28;20037;-65
2022/07/03 04:05:09;;;;;;;5.68;4.40;;;;;;;;;;10146967;28;20494;-65
2022/07/03 04:10:03;;;;;;;7.45;4.85;;;;;;;;;;10130082;28;20474;-64
2022/07/03 04:14:58;;;;;;;7.78;5.05;;;;;;;;;;10133103;28;20100;-74
2022/07/03 04:19:52;;;;;;;10.82;4.82;;;;;;;;;;10125831;28;20483;-74
2022/07/03 04:24:45;;;;;;;8.73;4.70;;;;;;;;;;10146343;28;20052;-75
2022/07/03 04:29:40;;;;;;;10.43;5.13;;;;;;;;;;10137187;28;20114;-73
2022/07/03 04:34:37;;;;;;;8.65;4.47;;;;;;;;;;10133242;28;20076;-74
2022/07/03 04:39:30;;;;;;;8.70;5.25;;;;;;;;;;10135027;28;20680;-73
2022/07/03 04:44:24;;;;;;;8.25;5.68;;;;;;;;;;10135047;28;20404;-73
2022/07/03 04:49:18;;;;;;;12.80;7.53;;;;;;;;;;10121819;28;20053;-75
2022/07/03 04:54:12;;;;;;;8.90;6.18;;;;;;;;;;10135022;28;20058;-82
2022/07/03 04:59:07;;;;;;;13.23;5.90;;;;;;;;;;10120204;28;20487;-80
2022/07/03 05:04:01;;;;;;;9.90;6.05;;;;;;;;;;10115863;28;20132;-80
2022/07/03 05:08:55;;;;;;;16.88;8.90;;;;;;;;;;10117429;28;20041;-80
2022/07/03 05:13:49;;;;;;;14.43;8.85;;;;;;;;;;10132456;28;20048;-80
2022/07/03 05:18:42;;;;;;;9.93;9.02;;;;;;;;;;10137273;28;20132;-79
2022/07/03 05:23:36;;;;;;;13.80;8.43;;;;;;;;;;10144132;28;20511;-78
2022/07/03 05:28:30;;;;;;;9.18;7.32;;;;;;;;;;10142850;28;20052;-77
2022/07/03 05:33:24;;;;;;;8.98;6.90;;;;;;;;;;10140641;28;20459;-76
2022/07/03 05:39:31;;;;;;;10.65;8.18;;;;;;;;;;10129845;28;20056;-76
2022/07/03 05:43:32;;;;;;;14.95;8.00;;;;;;;;;;10138121;28;20049;-76
2022/07/03 05:48:27;;;;;;;12.23;7.28;;;;;;;;;;10134581;28;20484;-76
2022/07/03 05:53:20;;;;;;;9.15;6.72;;;;;;;;;;10134842;28;20731;-75
2022/07/03 05:58:15;;;;;;;7.00;6.00;;;;;;;;;;10132482;28;20492;-75
2022/07/03 06:03:08;;;;;;;12.75;6.85;;;;;;;;;;10125301;28;20045;-72
2022/07/03 06:08:03;;;;;;;15.27;8.38;;;;;;;;;;10126886;28;20502;-73
2022/07/03 06:12:57;;;;;;;8.30;7.40;;;;;;;;;;10126652;28;20158;-74
2022/07/03 06:17:53;;;;;;;7.05;6.35;;;;;;;;;;10137469;28;20079;-75
2022/07/03 06:22:46;;;;;;;11.73;7.50;;;;;;;;;;10138740;28;20043;-75
2022/07/03 06:27:39;;;;;;;9.05;6.60;;;;;;;;;;10126657;28;20572;-75
2022/07/03 06:32:33;;;;;;;11.02;6.70;;;;;;;;;;10129278;28;20052;-75
2022/07/03 06:37:25;;;;;;;11.02;7.15;;;;;;;;;;10129910;28;20062;-77
2022/07/03 06:42:20;;;;;;;11.18;6.63;;;;;;;;;;10128516;28;20488;-71
2022/07/03 06:47:13;;;;;;;13.25;6.97;;;;;;;;;;10138867;28;20099;-77
2022/07/03 06:52:08;;;;;;;8.77;5.60;;;;;;;;;;10148518;28;20075;-72
2022/07/03 06:57:02;;;;;;;12.32;7.20;;;;;;;;;;10150786;28;20487;-69
2022/07/03 07:01:57;;;;;;;10.35;6.80;;;;;;;;;;10146030;28;20484;-68
2022/07/03 07:06:51;;;;;;;8.63;5.20;;;;;;;;;;10143455;28;20475;-68
2022/07/03 07:11:46;;;;;;;9.70;5.85;;;;;;;;;;10125199;28;20124;-68
2022/07/03 07:16:40;;;;;;;9.52;5.85;;;;;;;;;;10139773;28;20049;-69
2022/07/03 07:21:34;;;;;;;15.50;6.88;;;;;;;;;;10140095;28;20081;-69
2022/07/03 07:26:28;;;;;;;7.13;4.97;;;;;;;;;;10135918;28;20373;-70
2022/07/03 07:31:22;;;;;;;14.15;4.82;;;;;;;;;;10145149;28;20063;-72
2022/07/03 07:36:16;;;;;;;6.20;4.95;;;;;;;;;;10129069;28;20060;-67
2022/07/03 07:41:10;;;;;;;8.88;5.78;;;;;;;;;;10140712;28;20049;-70
2022/07/03 07:46:04;;;;;;;12.27;5.78;;;;;;;;;;10133867;28;20606;-69
2022/07/03 07:50:59;;;;;;;8.20;4.15;;;;;;;;;;10127328;28;20059;-70
2022/07/03 07:55:53;;;;;;;10.85;3.95;;;;;;;;;;10137385;28;20048;-75
2022/07/03 08:05:59;;;;;;;10.88;5.57;;;;;;;;;;10136640;28;20450;-72
2022/07/03 08:10:54;;;;;;;6.90;4.60;;;;;;;;;;10137433;28;20124;-72
2022/07/03 08:15:48;;;;;;;10.40;3.92;;;;;;;;;;10126602;28;20061;-72
2022/07/03 08:20:42;;;;;;;10.85;4.53;;;;;;;;;;10135609;28;20044;-74
2022/07/03 08:25:37;;;;;;;15.73;5.10;;;;;;;;;;10120926;28;20060;-74
2022/07/03 08:30:31;;;;;;;7.30;4.25;;;;;;;;;;10121728;28;20049;-73
2022/07/03 08:35:24;;;;;;;19.48;4.60;;;;;;;;;;10106667;28;20059;-73
2022/07/03 08:40:20;;;;;;;8.82;4.10;;;;;;;;;;10137194;28;20119;-75
2022/07/03 08:45:16;;;;;;;13.53;5.07;;;;;;;;;;10123178;28;20043;-76
2022/07/03 08:50:12;;;;;;;7.97;4.97;;;;;;;;;;10136496;28;20041;-75
2022/07/03 08:55:09;;;;;;;8.98;4.45;;;;;;;;;;10140337;28;20124;-75
2022/07/03 09:00:22;;;;;;;;;;;;;;;;;;10131799;28;20052;-75
2022/07/03 09:05:18;;;;;;;8.82;4.10;;;;;;;;;;10146812;28;20275;-75
2022/07/03 09:10:15;;;;;;;11.15;5.25;;;;;;;;;;10146002;28;20084;-75
2022/07/03 09:15:10;;;;;;;12.75;3.90;;;;;;;;;;10135978;28;20044;-75
2022/07/03 09:20:08;;;;;;;7.90;4.75;;;;;;;;;;10140486;28;20056;-75
2022/07/03 09:25:08;;;;;;;;;;;;;;;;;;10135547;28;20457;-74
2022/07/03 09:30:06;;;;;;;15.82;4.85;;;;;;;;;;10126783;28;19932;-77
2022/07/03 09:35:23;;;;;;;4.53;3.45;;;;;;;;;;10123729;28;20075;-74
2022/07/03 09:40:22;;;;;;;8.20;3.70;;;;;;;;;;10129800;28;20049;-74
2022/07/03 09:45:16;;;;;;;;;;;;;;;;;;10133896;28;20098;-74
2022/07/03 09:50:12;;;;;;;6.90;3.50;;;;;;;;;;10153346;28;20355;-74
2022/07/03 09:55:08;;;;;;;5.10;3.00;;;;;;;;;;10122968;28;20053;-74
2022/07/03 10:00:32;;;;;;;9.90;3.60;;;;;;;;;;10141974;28;20055;-75
2022/07/03 10:05:30;;;;;;;4.57;3.10;;;;;;;;;;10148285;28;20052;-74
2022/07/03 10:10:26;;;;;;;4.57;3.50;;;;;;;;;;10124081;28;20044;-75
2022/07/03 10:15:23;;;;;;;8.73;3.13;;;;;;;;;;10136230;28;20052;-75
2022/07/03 10:20:36;;;;;;;7.43;3.20;;;;;;;;;;10146712;28;20110;-74
2022/07/03 10:25:31;;;;;;;7.60;3.10;;;;;;;;;;10107296;28;20044;-74
2022/07/03 10:30:27;;;;;;;7.95;2.95;;;;;;;;;;10126672;28;20045;-75
2022/07/03 10:35:25;;;;;;;12.63;5.00;;;;;;;;;;10120354;28;20048;-74
2022/07/03 10:46:16;;;;;;;8.77;2.65;;;;;;;;;;10117355;28;20061;-74
2022/07/03 10:51:12;;;;;;;5.60;2.67;;;;;;;;;;10112279;28;20049;-75
2022/07/03 10:56:06;;;;;;;4.25;2.53;;;;;;;;;;10132544;28;20477;-75
2022/07/03 11:01:00;;;;;;;4.43;2.97;;;;;;;;;;10137931;28;20070;-75
2022/07/03 11:05:53;;;;;;;6.90;2.90;;;;;;;;;;10133853;28;20446;-75
2022/07/03 11:11:54;;;;;;;10.40;2.80;;;;;;;;;;10115092;28;20048;-75
2022/07/03 11:16:03;;;;;;;4.87;3.20;;;;;;;;;;10127005;28;20091;-75
2022/07/03 11:21:17;;;;;;;4.13;2.88;;;;;;;;;;10129771;28;20068;-75
2022/07/03 11:26:10;;;;;;;5.90;2.55;;;;;;;;;;10132956;28;20060;-75
2022/07/03 11:31:16;;;;;;;7.80;2.92;;;;;;;;;;10148984;28;20052;-75
2022/07/03 11:36:11;;;;;;;5.68;2.70;;;;;;;;;;10152472;28;20434;-75
2022/07/03 11:41:08;;;;;;;7.25;2.97;;;;;;;;;;10136308;28;20045;-74
2022/07/03 11:46:06;;;;;;;4.55;2.45;;;;;;;;;;10137091;28;20047;-74
2022/07/03 11:51:03;;;;;;;4.00;2.70;;;;;;;;;;10130952;28;20045;-75
2022/07/03 11:56:06;;;;;;;7.78;2.67;;;;;;;;;;10150441;28;20105;-75
2022/07/03 12:01:00;;;;;;;8.02;2.67;;;;;;;;;;10117655;28;20087;-75
2022/07/03 12:05:58;;;;;;;4.88;2.40;;;;;;;;;;10151062;28;20052;-75
2022/07/03 12:11:17;;;;;;;8.88;3.10;;;;;;;;;;10139416;28;20498;-75
2022/07/03 12:16:13;;;;;;;4.97;3.10;;;;;;;;;;10144903;28;20105;-75
2022/07/03 12:21:07;;;;;;;8.82;2.72;;;;;;;;;;10129657;28;20053;-75
2022/07/03 12:26:01;;;;;;;7.03;2.97;;;;;;;;;;10142765;28;20052;-75
2022/07/03 12:30:56;;;;;;;8.05;2.30;;;;;;;;;;10149907;28;20135;-76
2022/07/03 12:36:06;;;;;;;7.30;2.92;;;;;;;;;;10150836;28;20495;-76
2022/07/03 12:41:05;;;;;;;4.90;2.88;;;;;;;;;;10134530;28;20045;-75
2022/07/03 12:45:59;;;;;;;5.90;2.75;;;;;;;;;;10133012;28;20053;-75
2022/07/03 12:50:57;;;;;;;3.28;2.30;;;;;;;;;;10126100;28;20060;-75
2022/07/03 12:55:52;;;;;;;6.22;2.53;;;;;;;;;;10126578;28;20496;-76
2022/07/03 13:00:49;;;;;;;4.03;2.30;;;;;;;;;;10143927;28;20052;-76
2022/07/03 13:05:44;;;;;;;10.15;2.72;;;;;;;;;;10129676;28;20123;-75
2022/07/03 13:10:39;;;;;;;7.53;2.27;;;;;;;;;;10135203;28;20131;-75
2022/07/03 13:15:33;;;;;;;12.27;2.80;;;;;;;;;;10138145;28;20048;-75
2022/07/03 13:20:51;;;;;;;7.47;2.92;;;;;;;;;;10144617;28;20045;-75
2022/07/03 13:25:45;;;;;;;4.72;2.80;;;;;;;;;;10137727;28;20117;-77
2022/07/03 13:30:40;;;;;;;4.72;2.53;;;;;;;;;;10126512;28;20411;-77
2022/07/03 13:35:34;;;;;;;10.50;3.95;;;;;;;;;;10140200;28;20074;-77
2022/07/03 13:40:29;;;;;;;7.55;2.40;;;;;;;;;;10138342;28;20140;-76
2022/07/03 13:45:22;;;;;;;7.43;2.30;;;;;;;;;;10144257;28;20123;-76
2022/07/03 13:50:17;;;;;;;10.40;2.72;;;;;;;;;;10139740;28;20056;-74
2022/07/03 13:55:12;;;;;;;11.90;2.72;;;;;;;;;;10135506;28;20595;-76
2022/07/03 14:00:10;;;;;;;5.20;2.10;;;;;;;;;;10131832;28;20110;-77
2022/07/03 14:05:06;;;;;;;7.95;3.60;;;;;;;;;;10139500;28;20415;-76
2022/07/03 14:10:00;;;;;;;5.88;2.40;;;;;;;;;;10138202;28;20502;-76
2022/07/03 14:14:56;;;;;;;3.92;2.03;;;;;;;;;;10144864;28;20064;-75
2022/07/03 14:19:50;;;;;;;;;;;;;;;;;;10140545;28;20040;-75
2022/07/03 14:24:43;;;;;;;7.47;2.53;;;;;;;;;;10140442;28;20278;-76
2022/07/03 14:34:50;;;;;;;5.57;2.47;;;;;;;;;;10134177;28;20045;-77
2022/07/03 14:39:48;;;;;;;6.43;2.13;;;;;;;;;;10141942;28;20053;-77
2022/07/03 14:44:43;;;;;;;3.10;2.08;;;;;;;;;;10134669;28;20523;-74
2022/07/03 14:49:39;;;;;;;7.32;2.53;;;;;;;;;;10138211;28;20095;-75
2022/07/03 14:54:35;;;;;;;4.00;2.25;;;;;;;;;;10134939;28;20052;-75
2022/07/03 14:59:44;;;;;;;7.82;2.20;;;;;;;;;;10144476;28;20049;-77
2022/07/03 15:04:56;;;;;;;6.85;2.63;;;;;;;;;;10131020;28;20070;-77
2022/07/03 15:10:05;;;;;;;10.32;2.65;;;;;;;;;;10140732;28;20671;-76
2022/07/03 15:15:00;;;;;;;25.50;3.75;;;;;;;;;;10148544;28;20079;-75
2022/07/03 15:19:55;;;;;;;6.13;2.60;;;;;;;;;;10146341;28;20056;-78
2022/07/03 15:24:50;;;;;;;5.18;2.50;;;;;;;;;;10119668;28;20063;-74
2022/07/03 15:29:44;;;;;;;;;;;;;;;;;;10142144;28;20197;-76
2022/07/03 15:34:38;;;;;;;7.78;3.38;;;;;;;;;;10150766;28;19927;-76
2022/07/03 15:39:38;;;;;;;3.88;2.45;;;;;;;;;;10138866;28;20196;-76
2022/07/03 15:44:39;;;;;;;6.38;2.75;;;;;;;;;;10130593;28;20106;-75
2022/07/03 15:49:38;;;;;;;10.32;2.67;;;;;;;;;;10142000;28;20135;-74
2022/07/03 15:54:53;;;;;;;7.65;2.28;;;;;;;;;;10125574;28;20052;-72
2022/07/03 15:59:52;;;;;;;7.30;2.45;;;;;;;;;;10143538;28;20047;-73
2022/07/03 16:04:45;;;;;;;3.35;2.20;;;;;;;;;;10116598;28;20057;-72
2022/07/03 16:09:41;;;;;;;7.18;2.60;;;;;;;;;;10146563;28;20048;-72
2022/07/03 16:14:35;;;;;;;7.00;2.33;;;;;;;;;;10150338;28;20060;-73
2022/07/03 16:19:50;;;;;;;2.50;2.13;;;;;;;;;;10150603;28;20495;-75
2022/07/03 16:24:46;;;;;;;6.38;1.95;;;;;;;;;;10140110;28;20448;-73
2022/07/03 16:29:41;;;;;;;9.37;2.30;;;;;;;;;;10145715;28;20653;-74
2022/07/03 16:34:48;;;;;;;6.35;3.20;;;;;;;;;;10145617;28;20071;-74
2022/07/03 16:39:46;;;;;;;5.88;2.05;;;;;;;;;;10140066;28;20053;-76
2022/07/03 16:44:41;;;;;;;7.53;2.25;;;;;;;;;;10137576;28;20049;-69
2022/07/03 16:49:37;;;;;;;10.30;2.88;;;;;;;;;;10130453;28;20079;-68
2022/07/03 16:54:35;;;;;;;4.00;2.25;;;;;;;;;;10136132;28;20423;-67
2022/07/03 16:59:29;;;;;;;4.18;2.30;;;;;;;;;;10124274;28;20114;-67
2022/07/03 17:04:24;;;;;;;3.75;2.38;;;;;;;;;;10126047;28;20064;-66
2022/07/03 17:09:19;;;;;;;5.93;2.50;;;;;;;;;;10111549;28;20110;-66
2022/07/03 17:14:13;;;;;;;6.95;2.58;;;;;;;;;;10115728;28;20446;-66
2022/07/03 17:19:09;;;;;;;4.30;2.50;;;;;;;;;;10138006;28;20546;-64
2022/07/03 17:24:05;;;;;;;8.68;2.50;;;;;;;;;;10121914;28;20133;-65
2022/07/03 17:29:03;;;;;;;7.40;2.20;;;;;;;;;;10137916;28;20114;-65
2022/07/03 17:33:59;;;;;;;4.28;1.95;;;;;;;;;;10137294;28;20306;-66
2022/07/03 17:38:58;;;;;;;6.32;2.20;;;;;;;;;;10121459;28;20135;-66
2022/07/03 17:43:53;;;;;;;6.47;2.35;;;;;;;;;;10141262;28;20400;-66
2022/07/03 17:48:47;;;;;;;4.43;2.53;;;;;;;;;;10134698;28;20122;-68
2022/07/03 17:53:42;;;;;;;8.55;2.45;;;;;;;;;;10131943;28;20291;-69
2022/07/03 17:58:35;;;;;;;6.03;3.80;;;;;;;;;;10140095;28;20507;-69
2022/07/03 18:03:30;;;;;;;7.15;3.15;;;;;;;;;;10127875;28;20087;-69
2022/07/03 18:08:28;;;;;;;11.85;3.90;;;;;;;;;;10113802;28;20120;-69
2022/07/03 18:13:40;;;;;;;9.68;3.30;;;;;;;;;;10126641;28;20045;-68
2022/07/03 18:18:40;;;;;;;5.80;3.03;;;;;;;;;;10130980;28;20052;-69
2022/07/03 18:23:40;;;;;;;8.95;3.25;;;;;;;;;;10129716;28;20048;-68
2022/07/03 18:28:37;;;;;;;8.73;4.22;;;;;;;;;;10130108;28;20155;-68
2022/07/03 18:33:31;;;;;;;;;;;;;;;;;;10103339;28;20102;-68
2022/07/03 18:38:27;;;;;;;8.30;3.35;;;;;;;;;;10120072;28;19924;-68
2022/07/03 18:43:21;;;;;;;8.57;4.07;;;;;;;;;;10132076;28;20044;-67
2022/07/03 18:48:15;;;;;;;13.80;4.50;;;;;;;;;;10126303;28;20057;-68
2022/07/03 18:53:17;;;;;;;6.13;3.38;;;;;;;;;;10132390;28;20060;-69
2022/07/03 18:58:29;;;;;;;14.20;3.60;;;;;;;;;;10137031;28;20045;-67
2022/07/03 19:04:23;;;;;;;7.15;4.18;;;;;;;;;;10136395;28;20063;-67
2022/07/03 19:09:26;;;;;;;15.95;4.22;;;;;;;;;;10088280;28;20052;-68
2022/07/03 19:14:21;;;;;;;10.93;3.85;;;;;;;;;;10124393;28;20044;-68
2022/07/03 19:19:15;;;;;;;4.45;3.25;;;;;;;;;;10119294;28;20083;-68
2022/07/03 19:24:10;;;;;;;5.05;3.72;;;;;;;;;;10129034;28;20119;-67
2022/07/03 19:29:04;;;;;;;3.72;3.35;;;;;;;;;;10114776;28;20445;-68
2022/07/03 19:33:58;;;;;;;12.15;3.95;;;;;;;;;;10128915;28;20048;-68
2022/07/03 19:38:52;;;;;;;7.10;4.03;;;;;;;;;;10124291;28;20057;-68
2022/07/03 19:43:46;;;;;;;9.45;4.40;;;;;;;;;;10130480;28;20040;-68
2022/07/03 19:48:41;;;;;;;10.55;4.22;;;;;;;;;;10114551;28;20048;-68
2022/07/03 19:53:35;;;;;;;9.32;4.03;;;;;;;;;;10118914;28;20072;-70
2022/07/03 19:58:29;;;;;;;10.20;4.72;;;;;;;;;;10131056;28;20045;-67
2022/07/03 20:03:23;;;;;;;9.13;3.88;;;;;;;;;;10118088;28;20045;-70
2022/07/03 20:08:18;;;;;;;8.32;4.15;;;;;;;;;;10134357;28;20063;-69
2022/07/03 20:13:13;;;;;;;17.10;5.70;;;;;;;;;;10134178;28;20110;-68
2022/07/03 20:18:07;;;;;;;8.13;4.55;;;;;;;;;;10127141;28;20499;-69
2022/07/03 20:23:08;;;;;;;10.15;4.55;;;;;;;;;;10131133;28;20041;-68
2022/07/03 20:28:08;;;;;;;10.27;4.68;;;;;;;;;;10137635;28;20123;-67
2022/07/03 20:33:01;;;;;;;10.95;5.25;;;;;;;;;;10122445;28;20408;-67
2022/07/03 20:37:56;;;;;;;9.38;5.95;;;;;;;;;;10110113;28;20048;-67
2022/07/03 20:42:51;;;;;;;11.27;6.13;;;;;;;;;;10119511;28;20045;-69
2022/07/03 20:47:44;;;;;;;13.48;4.75;;;;;;;;;;10117141;28;20399;-67
2022/07/03 20:52:38;;;;;;;5.97;4.28;;;;;;;;;;10121233;28;20044;-69
2022/07/03 20:57:32;;;;;;;8.82;4.70;;;;;;;;;;10110739;28;20076;-70
2022/07/03 21:02:25;;;;;;;8.52;4.63;;;;;;;;;;10114879;28;20483;-69
2022/07/03 21:07:20;;;;;;;10.75;4.88;;;;;;;;;;10114920;28;20048;-69
2022/07/03 21:12:14;;;;;;;11.93;5.55;;;;;;;;;;10133579;28;20880;-69
2022/07/03 21:17:09;;;;;;;13.75;5.25;;;;;;;;;;10133665;28;20037;-68
2022/07/03 21:22:04;;;;;;;10.43;5.63;;;;;;;;;;10126648;28;20573;-69
2022/07/03 21:26:58;;;;;;;8.07;5.38;;;;;;;;;;10123969;28;20110;-68
2022/07/03 21:31:56;;;;;;;8.75;5.25;;;;;;;;;;10126239;28;20125;-69
2022/07/03 21:36:49;;;;;;;;;;;;;;;;;;10120676;28;20048;-69
2022/07/03 21:41:44;;;;;;;7.85;5.07;;;;;;;;;;10122050;28;20437;-69
2022/07/03 21:46:41;;;;;;;7.88;4.82;;;;;;;;;;10122311;28;20059;-68
2022/07/03 21:51:34;;;;;;;11.65;5.18;;;;;;;;;;10134342;28;20098;-69
2022/07/03 21:56:28;;;;;;;12.80;4.78;;;;;;;;;;10138969;28;20049;-68
2022/07/03 22:01:23;;;;;;;9.48;4.50;;;;;;;;;;10146232;28;20515;-69
2022/07/03 22:06:17;;;;;;;12.38;5.70;;;;;;;;;;10145552;28;20408;-69
2022/07/03 22:11:11;;;;;;;10.50;4.93;;;;;;;;;;10146935;28;20072;-69
2022/07/03 22:16:05;;;;;;;8.20;4.82;;;;;;;;;;10128643;28;20075;-69
2022/07/03 22:21:00;;;;;;;7.70;4.50;;;;;;;;;;10139237;28;20068;-69
2022/07/03 22:25:54;;;;;;;7.22;3.85;;;;;;;;;;10136505;28;20437;-68
2022/07/03 22:30:49;;;;;;;13.65;4.75;;;;;;;;;;10138744;28;20053;-68
2022/07/03 22:35:43;;;;;;;10.07;4.57;;;;;;;;;;10133773;28;20052;-68
2022/07/03 22:40:37;;;;;;;14.88;4.47;;;;;;;;;;10141349;28;20055;-68
2022/07/03 22:45:33;;;;;;;6.30;4.60;;;;;;;;;;10140442;28;20083;-68
2022/07/03 22:50:28;;;;;;;7.28;4.15;;;;;;;;;;10139669;28;20060;-67
2022/07/03 22:55:22;;;;;;;5.70;4.47;;;;;;;;;;10143333;28;20053;-66
2022/07/03 23:00:17;;;;;;;7.20;4.38;;;;;;;;;;10132997;28;20052;-68
2022/07/03 23:05:11;;;;;;;9.20;3.92;;;;;;;;;;10144920;28;20051;-67
2022/07/03 23:10:07;;;;;;;11.45;5.13;;;;;;;;;;10139576;28;20053;-68
2022/07/03 23:15:01;;;;;;;8.25;4.78;;;;;;;;;;10142191;28;20049;-67
2022/07/03 23:19:55;;;;;;;7.28;4.72;;;;;;;;;;10132097;28;20056;-67
2022/07/03 23:24:50;;;;;;;6.25;4.22;;;;;;;;;;10130504;28;20060;-68
2022/07/03 23:29:44;;;;;;;9.57;4.03;;;;;;;;;;10139534;28;20064;-67
2022/07/03 23:34:38;;;;;;;7.35;4.70;;;;;;;;;;10144408;28;20110;-67
2022/07/03 23:39:32;;;;;;;9.30;4.22;;;;;;;;;;10147820;28;20134;-69
2022/07/03 23:44:27;;;;;;;6.75;4.13;;;;;;;;;;10148728;28;20052;-67
2022/07/03 23:54:32;;;;;;;7.25;5.43;;;;;;;;;;10148017;28;20136;-68
2022/07/03 23:59:26;;;;;;;8.05;5.10;;;;;;;;;;10141438;28;20059;-68
